Time;durP1;ratioP1;P1;durP2;ratioP2;P2;SDS_P1;SDS_P2;PMS_P1;PMS_P2;Temp;Humidity;BMP_temperature;BMP_pressure;BME280_temperature;BME280_humidity;BME280_pressure;Samples;Min_cycle;Max_cycle;Signal;HPM_P1;HPM_P2
2021/04/16 00:02:10;;;;;;;35.33;31.43;;;;;;;4.35;79.01;100746.69;121592;1154;22545;-71
2021/04/16 00:04:39;;;;;;;36.98;33.35;;;;;;;4.33;78.69;100741.59;121982;1156;22693;-72
2021/04/16 00:07:07;;;;;;;36.98;32.93;;;;;;;4.32;78.59;100741.69;121863;1155;24390;-71
2021/04/16 00:09:36;;;;;;;37.85;34.05;;;;;;;4.29;78.66;100736.69;121729;1155;22546;-71
2021/04/16 00:12:06;;;;;;;37.95;34.23;;;;;;;4.27;78.80;100739.44;122045;1155;22552;-73
2021/04/16 00:14:38;;;;;;;39.38;34.25;;;;;;;4.28;79.11;100738.48;122043;1155;22551;-72
2021/04/16 00:17:10;;;;;;;42.90;36.33;;;;;;;4.29;78.97;100732.29;122033;1156;22541;-71
2021/04/16 00:19:38;;;;;;;38.38;34.30;;;;;;;4.29;78.99;100734.08;121999;1158;22643;-70
2021/04/16 00:22:07;;;;;;;37.38;33.73;;;;;;;4.28;79.29;100729.80;122263;1154;22541;-71
2021/04/16 00:24:36;;;;;;;36.37;32.57;;;;;;;4.27;79.10;100722.92;122125;1152;23412;-71
2021/04/16 00:27:04;;;;;;;34.43;30.83;;;;;;;4.26;79.23;100724.67;122194;1155;23307;-70
2021/04/16 00:29:35;;;;;;;33.03;29.98;;;;;;;4.27;79.15;100728.15;122136;1152;22539;-72
2021/04/16 00:32:05;;;;;;;34.30;30.85;;;;;;;4.29;79.23;100728.84;122158;1152;22671;-72
2021/04/16 00:34:33;;;;;;;35.68;32.15;;;;;;;4.30;79.40;100722.66;122170;1152;24908;-71
2021/04/16 00:37:03;;;;;;;34.68;31.23;;;;;;;4.32;79.48;100726.00;122392;1152;22534;-71
2021/04/16 00:39:31;;;;;;;34.50;30.93;;;;;;;4.34;79.16;100726.72;122091;1152;22528;-70
2021/04/16 00:41:59;;;;;;;34.30;30.90;;;;;;;4.29;79.12;100721.83;122176;1152;22538;-72
2021/04/16 00:44:29;;;;;;;32.53;29.48;;;;;;;4.30;79.29;100718.28;122098;1152;22554;-71
2021/04/16 00:47:04;;;;;;;33.45;30.08;;;;;;;4.31;79.51;100714.70;122183;1152;22549;-71
2021/04/16 00:49:40;;;;;;;33.35;30.25;;;;;;;4.29;79.42;100706.14;121734;1156;22566;-70
2021/04/16 00:52:13;;;;;;;34.83;31.73;;;;;;;4.30;79.56;100709.58;122025;1155;23030;-71
2021/04/16 00:54:43;;;;;;;33.30;29.98;;;;;;;4.30;79.64;100712.19;121987;1155;22632;-70
2021/04/16 00:57:13;;;;;;;32.25;28.85;;;;;;;4.29;79.59;100713.16;121682;1155;25269;-70
2021/04/16 00:59:48;;;;;;;30.38;27.58;;;;;;;4.30;79.78;100704.34;121864;1158;24705;-70
2021/04/16 01:02:19;;;;;;;30.08;27.13;;;;;;;4.29;79.51;100708.75;121700;1155;22543;-70
2021/04/16 01:04:49;;;;;;;30.47;27.53;;;;;;;4.30;79.59;100705.20;121675;1155;24711;-72
2021/04/16 01:07:20;;;;;;;31.35;28.38;;;;;;;4.31;79.52;100706.03;122010;1152;25750;-70
2021/04/16 01:09:50;;;;;;;33.78;30.70;;;;;;;4.32;79.76;100700.67;122435;1152;23462;-70
2021/04/16 01:12:19;;;;;;;28.78;26.20;;;;;;;4.33;79.63;100702.36;122177;1152;23036;-70
2021/04/16 01:14:51;;;;;;;30.93;27.63;;;;;;;4.33;79.77;100704.11;122162;1151;24690;-70
2021/04/16 01:17:20;;;;;;;29.93;27.03;;;;;;;4.33;79.84;100698.88;122175;1153;22527;-70
2021/04/16 01:20:12;;;;;;;29.40;26.45;;;;;;;4.32;79.78;100699.84;122078;1155;22610;-70
2021/04/16 01:22:52;;;;;;;28.65;25.75;;;;;;;4.33;79.78;100710.20;121940;1155;24744;-71
2021/04/16 01:25:23;;;;;;;25.38;23.08;;;;;;;4.36;79.99;100706.49;121679;1154;22603;-72
2021/04/16 01:27:57;;;;;;;25.55;23.05;;;;;;;4.38;79.83;100700.20;121990;1155;22541;-72
2021/04/16 01:30:31;;;;;;;26.23;23.63;;;;;;;4.41;79.95;100699.14;121659;1155;24446;-70
2021/04/16 01:33:00;;;;;;;25.98;23.55;;;;;;;4.42;80.09;100699.00;122036;1154;22540;-70
2021/04/16 01:35:35;;;;;;;25.77;23.37;;;;;;;4.44;79.91;100701.52;122020;1156;23556;-71
2021/04/16 01:38:05;;;;;;;26.28;23.88;;;;;;;4.43;79.99;100694.59;121728;1156;22545;-71
2021/04/16 01:40:34;;;;;;;25.95;23.53;;;;;;;4.44;79.99;100694.49;121806;1156;22550;-70
2021/04/16 01:43:32;;;;;;;26.80;24.30;;;;;;;4.44;79.85;100694.49;121980;1155;22541;-70
2021/04/16 01:46:18;;;;;;;26.03;23.63;;;;;;;4.42;80.00;100700.79;122135;1155;22551;-70
2021/04/16 01:49:00;;;;;;;24.65;22.43;;;;;;;4.40;80.19;100692.25;122070;1155;22528;-70
2021/04/16 01:51:34;;;;;;;23.98;21.85;;;;;;;4.39;80.19;100701.03;122108;1152;25632;-70
2021/04/16 01:54:29;;;;;;;24.10;21.95;;;;;;;4.40;80.21;100702.72;121709;1155;22536;-71
2021/04/16 01:57:02;;;;;;;25.00;22.73;;;;;;;4.40;80.24;100697.48;122063;1156;22547;-70
2021/04/16 01:59:36;;;;;;;24.85;22.65;;;;;;;4.41;80.26;100697.34;122010;1156;22537;-72
2021/04/16 02:02:08;;;;;;;26.75;24.30;;;;;;;4.44;80.20;100693.67;122045;1156;22568;-70
2021/04/16 02:04:40;;;;;;;25.48;23.18;;;;;;;4.45;80.18;100693.53;122033;1156;25382;-71
2021/04/16 02:07:12;;;;;;;25.30;23.02;;;;;;;4.46;80.16;100687.37;121999;1155;24542;-70
2021/04/16 02:09:42;;;;;;;25.15;22.85;;;;;;;4.48;80.43;100690.68;121504;1156;22625;-71
2021/04/16 02:12:20;;;;;;;22.93;21.00;;;;;;;4.50;80.29;100687.96;121074;1160;24800;-71
2021/04/16 02:14:58;;;;;;;23.38;21.28;;;;;;;4.51;80.29;100683.55;121071;1161;22632;-71
2021/04/16 02:17:31;;;;;;;21.93;20.05;;;;;;;4.52;80.28;100685.20;121036;1161;22571;-71
2021/04/16 02:20:10;;;;;;;24.10;21.80;;;;;;;4.53;80.39;100684.25;121529;1158;22550;-71
2021/04/16 02:22:41;;;;;;;24.35;22.23;;;;;;;4.53;80.38;100684.25;121259;1159;22560;-71
2021/04/16 02:25:13;;;;;;;23.93;21.80;;;;;;;4.54;80.39;100680.70;121165;1158;24695;-71
2021/04/16 02:27:43;;;;;;;25.40;23.20;;;;;;;4.56;80.37;100682.22;121588;1155;24793;-72
2021/04/16 02:30:24;;;;;;;25.85;23.55;;;;;;;4.55;80.61;100675.33;122166;1152;22529;-71
2021/04/16 02:32:55;;;;;;;25.80;23.35;;;;;;;4.57;80.64;100680.46;122215;1152;22544;-71
2021/04/16 02:35:27;;;;;;;24.15;22.05;;;;;;;4.57;80.38;100683.91;122470;1152;24146;-72
2021/04/16 02:37:57;;;;;;;25.70;23.38;;;;;;;4.60;80.79;100681.05;122394;1152;23317;-71
2021/04/16 02:40:28;;;;;;;24.08;21.83;;;;;;;4.64;80.57;100681.64;122202;1152;22529;-71
2021/04/16 02:43:02;;;;;;;24.87;21.93;;;;;;;4.68;80.75;100683.88;122380;1153;22538;-71
2021/04/16 02:45:35;;;;;;;24.75;22.45;;;;;;;4.72;80.84;100687.08;122194;1152;22520;-71
2021/04/16 02:48:07;;;;;;;22.87;20.77;;;;;;;4.74;80.68;100685.19;122398;1151;22532;-71
2021/04/16 02:50:36;;;;;;;22.28;20.25;;;;;;;4.78;80.78;100688.39;122196;1152;24664;-71
2021/04/16 02:53:04;;;;;;;25.13;22.73;;;;;;;4.81;80.66;100690.77;122134;1152;24694;-71
2021/04/16 02:55:34;;;;;;;23.40;21.20;;;;;;;4.82;80.52;100689.80;122411;1152;22524;-71
2021/04/16 02:58:04;;;;;;;26.07;23.80;;;;;;;4.83;80.92;100691.45;122393;1152;22597;-71
2021/04/16 03:00:36;;;;;;;25.05;22.85;;;;;;;4.85;80.69;100698.23;122236;1152;22526;-71
2021/04/16 03:03:05;;;;;;;23.15;21.25;;;;;;;4.89;80.75;100696.20;122395;1152;22645;-71
2021/04/16 03:05:33;;;;;;;24.00;21.77;;;;;;;4.92;80.67;100688.94;122374;1152;22528;-72
2021/04/16 03:08:02;;;;;;;19.63;17.80;;;;;;;4.94;80.73;100686.21;122358;1152;22536;-71
2021/04/16 03:10:35;;;;;;;18.65;16.85;;;;;;;4.95;80.61;100693.10;122356;1153;22621;-72
2021/04/16 03:13:05;;;;;;;17.70;15.93;;;;;;;4.99;80.77;100697.13;122203;1152;22520;-72
2021/04/16 03:15:35;;;;;;;20.10;18.20;;;;;;;5.01;80.67;100689.17;122303;1152;25698;-73
2021/04/16 03:18:04;;;;;;;23.08;21.05;;;;;;;5.03;80.76;100693.34;122164;1152;22524;-73
2021/04/16 03:20:36;;;;;;;22.40;20.03;;;;;;;5.03;80.42;100703.81;122227;1152;24667;-72
2021/04/16 03:23:11;;;;;;;20.28;18.28;;;;;;;5.04;80.63;100691.55;122352;1152;22534;-72
2021/04/16 03:25:40;;;;;;;22.10;20.03;;;;;;;5.06;80.48;100697.47;122100;1152;22532;-72
2021/04/16 03:28:09;;;;;;;20.30;18.33;;;;;;;5.06;80.32;100695.67;122379;1152;22930;-72
2021/04/16 03:30:42;;;;;;;21.48;19.58;;;;;;;5.07;80.40;100699.16;122189;1152;24752;-72
2021/04/16 03:33:10;;;;;;;19.30;16.58;;;;;;;5.08;80.46;100701.63;122135;1154;23464;-71
2021/04/16 03:35:40;;;;;;;21.88;19.15;;;;;;;5.10;80.25;100697.12;122154;1152;22561;-71
2021/04/16 03:38:08;;;;;;;26.88;20.78;;;;;;;5.09;80.30;100705.08;122118;1153;22527;-71
2021/04/16 03:40:38;;;;;;;19.05;15.65;;;;;;;5.10;80.21;100702.36;122220;1153;23399;-71
2021/04/16 03:43:06;;;;;;;18.93;15.83;;;;;;;5.11;80.24;100698.77;122202;1152;24876;-71
2021/04/16 03:45:35;;;;;;;20.30;15.08;;;;;;;5.09;80.30;100698.05;122162;1154;25348;-71
2021/04/16 03:48:04;;;;;;;21.18;13.93;;;;;;;5.07;80.22;100697.36;122264;1151;22590;-72
2021/04/16 03:50:37;;;;;;;18.23;12.27;;;;;;;5.06;80.15;100692.23;122478;1153;22511;-70
2021/04/16 03:53:08;;;;;;;16.83;11.88;;;;;;;5.03;80.16;100703.81;122177;1152;22534;-71
2021/04/16 03:55:40;;;;;;;15.08;10.80;;;;;;;5.02;80.16;100703.91;122352;1152;22536;-71
2021/04/16 03:58:11;;;;;;;14.90;10.37;;;;;;;5.02;80.28;100702.13;122379;1152;22532;-71
2021/04/16 04:00:41;;;;;;;12.97;11.33;;;;;;;5.02;80.32;100709.98;122197;1153;22544;-71
2021/04/16 04:03:14;;;;;;;16.25;11.45;;;;;;;5.00;80.16;100705.81;122194;1152;22534;-71
2021/04/16 04:05:43;;;;;;;13.65;10.65;;;;;;;4.98;80.11;100712.98;122378;1151;24372;-72
2021/04/16 04:08:14;;;;;;;14.90;10.48;;;;;;;4.97;79.89;100708.70;122397;1152;24671;-71
2021/04/16 04:10:43;;;;;;;17.53;11.85;;;;;;;4.94;79.97;100707.98;122201;1152;22539;-71
2021/04/16 04:13:13;;;;;;;15.45;11.18;;;;;;;4.94;80.10;100707.16;122119;1152;24921;-72
2021/04/16 04:15:42;;;;;;;13.38;10.00;;;;;;;4.92;79.97;100707.27;122156;1152;23291;-71
2021/04/16 04:18:31;;;;;;;14.43;11.93;;;;;;;4.90;79.87;100709.19;122098;1152;22528;-71
2021/04/16 04:21:01;;;;;;;12.48;10.93;;;;;;;4.89;79.80;100704.89;122200;1151;22533;-71
2021/04/16 04:23:29;;;;;;;15.25;10.08;;;;;;;4.89;79.85;100711.91;122081;1152;22536;-72
2021/04/16 04:25:59;;;;;;;13.90;10.65;;;;;;;4.89;79.96;100720.59;122233;1152;24774;-73
2021/04/16 04:28:28;;;;;;;16.00;13.10;;;;;;;4.91;79.92;100720.48;122413;1152;22541;-71
2021/04/16 04:30:56;;;;;;;15.03;11.93;;;;;;;4.92;80.06;100722.14;122147;1152;22530;-70
2021/04/16 04:33:25;;;;;;;15.23;13.70;;;;;;;4.91;79.80;100725.73;122189;1151;22512;-71
2021/04/16 04:35:54;;;;;;;18.85;15.00;;;;;;;4.89;79.88;100720.59;122170;1151;22571;-70
2021/04/16 04:38:22;;;;;;;18.60;16.70;;;;;;;4.91;79.90;100723.11;122389;1153;22910;-70
2021/04/16 04:40:51;;;;;;;18.70;16.60;;;;;;;4.91;79.92;100723.11;122193;1152;22530;-70
2021/04/16 04:43:20;;;;;;;18.45;16.55;;;;;;;4.90;79.83;100724.90;122314;1154;24473;-70
2021/04/16 04:45:48;;;;;;;21.48;18.33;;;;;;;4.91;79.81;100723.94;122439;1151;24693;-71
2021/04/16 04:48:16;;;;;;;17.95;16.20;;;;;;;4.91;79.78;100726.55;122145;1154;23057;-71
2021/04/16 04:50:45;;;;;;;19.03;17.03;;;;;;;4.90;79.64;100724.06;122360;1154;23203;-70
2021/04/16 04:53:13;;;;;;;17.35;15.55;;;;;;;4.89;79.53;100727.63;122242;1152;24025;-70
2021/04/16 04:55:41;;;;;;;17.15;15.35;;;;;;;4.86;79.36;100730.48;122181;1152;22530;-71
2021/04/16 04:58:09;;;;;;;17.85;16.03;;;;;;;4.84;79.48;100728.00;122080;1152;24683;-70
2021/04/16 05:00:38;;;;;;;18.43;16.23;;;;;;;4.84;79.73;100728.00;122348;1152;22574;-72
2021/04/16 05:03:06;;;;;;;22.98;15.88;;;;;;;4.84;79.58;100733.23;122187;1152;23059;-70
2021/04/16 05:05:35;;;;;;;18.35;15.70;;;;;;;4.87;79.67;100734.78;122179;1152;22538;-73
2021/04/16 05:08:03;;;;;;;17.45;14.68;;;;;;;4.87;79.48;100734.78;122201;1152;22586;-71
2021/04/16 05:10:31;;;;;;;16.63;13.75;;;;;;;4.85;79.56;100734.06;122197;1152;22544;-71
2021/04/16 05:13:00;;;;;;;14.33;12.85;;;;;;;4.84;79.48;100730.61;122298;1152;22550;-71
2021/04/16 05:15:28;;;;;;;14.18;12.65;;;;;;;4.80;79.35;100725.72;122127;1151;24774;-72
2021/04/16 05:17:56;;;;;;;13.98;12.55;;;;;;;4.74;79.15;100732.30;122150;1153;22541;-72
2021/04/16 05:20:25;;;;;;;14.48;13.05;;;;;;;4.73;79.17;100727.99;122191;1152;22537;-71
2021/04/16 05:22:53;;;;;;;14.80;11.43;;;;;;;4.71;79.45;100729.92;122202;1152;22757;-71
2021/04/16 05:25:21;;;;;;;15.00;12.60;;;;;;;4.70;79.34;100734.33;122374;1152;22532;-71
2021/04/16 05:27:50;;;;;;;14.98;12.40;;;;;;;4.70;79.48;100734.33;122193;1154;24368;-71
2021/04/16 05:30:18;;;;;;;15.70;14.10;;;;;;;4.71;79.47;100733.36;122100;1155;22531;-72
2021/04/16 05:32:51;;;;;;;15.23;12.28;;;;;;;4.75;79.69;100725.27;122105;1155;22544;-71
2021/04/16 05:35:19;;;;;;;16.78;12.55;;;;;;;4.77;79.53;100726.00;122201;1152;22518;-71
2021/04/16 05:37:48;;;;;;;13.90;12.07;;;;;;;4.75;79.48;100728.72;122191;1152;22527;-71
2021/04/16 05:40:17;;;;;;;15.18;13.50;;;;;;;4.76;79.50;100729.55;122423;1152;24689;-71
2021/04/16 05:42:45;;;;;;;13.90;12.60;;;;;;;4.77;79.31;100737.30;122334;1151;25263;-72
2021/04/16 05:45:16;;;;;;;15.00;13.50;;;;;;;4.77;79.38;100733.84;122197;1155;22546;-72
2021/04/16 05:47:44;;;;;;;16.88;13.38;;;;;;;4.77;79.43;100723.38;122261;1152;22588;-71
2021/04/16 05:50:15;;;;;;;16.35;12.38;;;;;;;4.77;79.18;100726.00;122387;1152;22531;-71
2021/04/16 05:52:43;;;;;;;16.40;10.63;;;;;;;4.75;79.06;100727.89;122164;1154;22616;-70
2021/04/16 05:55:13;;;;;;;13.98;10.95;;;;;;;4.73;79.20;100725.38;122187;1152;22520;-70
2021/04/16 05:57:47;;;;;;;12.65;11.05;;;;;;;4.70;79.09;100723.03;122177;1152;22524;-70
2021/04/16 06:00:16;;;;;;;15.08;10.95;;;;;;;4.68;79.23;100717.07;122332;1152;24458;-72
2021/04/16 06:02:44;;;;;;;12.45;11.15;;;;;;;4.67;79.13;100725.88;122288;1152;22540;-71
2021/04/16 06:05:16;;;;;;;19.88;13.23;;;;;;;4.69;79.24;100718.73;122320;1152;25167;-69
2021/04/16 06:07:46;;;;;;;;;;;;;;;4.69;79.38;100718.73;122145;1155;22518;-70
2021/04/16 06:10:18;;;;;;;21.13;18.75;;;;;;;4.61;79.25;100724.56;122357;1152;23047;-70
2021/04/16 06:12:46;;;;;;;27.83;15.70;;;;;;;4.62;79.47;100726.23;122389;1152;22523;-71
2021/04/16 06:15:19;;;;;;;21.23;16.08;;;;;;;4.64;79.44;100731.36;122176;1152;22528;-70
2021/04/16 06:17:48;;;;;;;20.05;15.95;;;;;;;4.67;79.50;100725.88;122395;1152;22534;-69
2021/04/16 06:20:20;;;;;;;21.43;15.03;;;;;;;4.70;79.47;100723.86;122550;1152;22529;-69
2021/04/16 06:22:52;;;;;;;15.78;13.95;;;;;;;4.74;79.57;100729.67;122157;1152;22525;-68
2021/04/16 06:25:31;;;;;;;14.75;12.38;;;;;;;4.80;79.42;100723.11;122258;1152;22627;-70
2021/04/16 06:28:02;;;;;;;19.28;8.85;;;;;;;4.81;79.21;100730.03;122145;1154;22583;-70
2021/04/16 06:30:31;;;;;;;11.60;7.50;;;;;;;4.79;79.00;100726.69;122248;1152;22531;-69
2021/04/16 06:33:19;;;;;;;14.48;8.40;;;;;;;4.76;78.83;100732.16;122195;1152;22534;-71
2021/04/16 06:35:59;;;;;;;12.60;8.70;;;;;;;4.70;78.60;100725.64;122151;1152;22538;-70
2021/04/16 06:38:32;;;;;;;18.28;11.95;;;;;;;4.62;78.67;100726.23;122170;1152;22534;-70
2021/04/16 06:41:04;;;;;;;19.10;14.90;;;;;;;4.59;78.72;100725.63;122158;1152;22537;-70
2021/04/16 06:43:42;;;;;;;23.45;18.28;;;;;;;4.61;78.79;100732.42;122006;1155;22561;-70
2021/04/16 06:46:29;;;;;;;23.93;18.83;;;;;;;4.65;78.98;100719.92;121704;1155;22546;-70
2021/04/16 06:49:03;;;;;;;32.68;26.53;;;;;;;4.67;78.90;100721.48;121657;1155;22546;-69
2021/04/16 06:51:37;;;;;;;24.13;18.00;;;;;;;4.73;79.34;100722.76;122067;1155;22546;-70
2021/04/16 06:54:15;;;;;;;15.30;10.75;;;;;;;4.82;79.25;100723.83;121453;1158;24461;-74
2021/04/16 06:56:47;;;;;;;11.73;8.27;;;;;;;4.84;78.85;100738.47;121485;1158;22651;-73
2021/04/16 06:59:32;;;;;;;14.38;10.25;;;;;;;4.83;78.76;100728.95;121476;1158;24696;-72
2021/04/16 07:02:11;;;;;;;18.28;10.03;;;;;;;4.84;78.74;100738.47;121435;1158;22587;-72
2021/04/16 07:04:50;;;;;;;20.45;12.40;;;;;;;4.88;78.75;100737.27;121527;1158;23567;-72
2021/04/16 07:07:33;;;;;;;18.80;10.20;;;;;;;4.89;78.65;100727.63;121558;1156;22634;-72
2021/04/16 07:10:14;;;;;;;14.28;10.53;;;;;;;4.91;78.50;100733.58;121573;1156;23088;-75
2021/04/16 07:12:44;;;;;;;12.40;8.15;;;;;;;4.95;78.47;100740.23;121547;1156;22792;-73
2021/04/16 07:15:40;;;;;;;13.00;7.73;;;;;;;4.99;78.30;100740.81;121194;1161;22585;-72
2021/04/16 07:18:27;;;;;;;10.25;7.03;;;;;;;4.98;78.32;100739.16;121194;1156;23440;-73
2021/04/16 07:20:57;;;;;;;11.40;7.93;;;;;;;5.03;78.27;100744.84;121471;1158;22559;-73
2021/04/16 07:23:26;;;;;;;9.93;7.20;;;;;;;5.07;78.30;100739.26;121525;1156;22699;-73
2021/04/16 07:26:34;;;;;;;16.68;8.45;;;;;;;5.10;78.11;100749.49;121263;1159;22564;-72
2021/04/16 07:29:04;;;;;;;13.10;8.47;;;;;;;5.13;78.11;100753.63;121669;1159;22555;-72
2021/04/16 07:31:51;;;;;;;10.08;6.55;;;;;;;5.19;78.35;100753.14;121422;1159;22557;-71
2021/04/16 07:34:33;;;;;;;10.50;5.93;;;;;;;5.23;77.96;100756.34;121507;1158;22915;-70
2021/04/16 07:37:40;;;;;;;13.07;7.33;;;;;;;5.26;77.95;100749.06;121429;1160;24722;-69
2021/04/16 07:40:22;;;;;;;14.63;8.70;;;;;;;5.25;77.46;100751.83;121543;1158;24765;-70
2021/04/16 07:42:52;;;;;;;14.63;8.78;;;;;;;5.21;77.48;100750.42;121622;1155;22559;-71
2021/04/16 07:45:47;;;;;;;16.60;8.93;;;;;;;5.19;77.38;100748.73;121623;1155;22596;-71
2021/04/16 07:48:21;;;;;;;22.48;13.53;;;;;;;5.21;77.48;100746.00;121722;1155;24532;-71
2021/04/16 07:50:55;;;;;;;15.38;8.10;;;;;;;5.25;77.31;100747.41;121965;1158;25141;-71
2021/04/16 07:53:53;;;;;;;15.08;8.53;;;;;;;5.29;77.36;100748.00;121664;1156;24936;-71
2021/04/16 07:56:23;;;;;;;15.20;7.45;;;;;;;5.26;77.07;100756.93;120824;1161;22649;-73
2021/04/16 07:59:10;;;;;;;9.30;6.57;;;;;;;5.22;76.79;100752.90;120763;1164;22585;-70
2021/04/16 08:01:47;;;;;;;16.90;10.30;;;;;;;5.18;76.74;100756.73;120889;1164;24776;-70
2021/04/16 08:04:24;;;;;;;20.97;11.67;;;;;;;5.20;76.92;100760.06;120880;1164;22663;-71
2021/04/16 08:07:20;;;;;;;13.17;7.53;;;;;;;5.24;77.00;100771.13;121021;1162;22714;-71
2021/04/16 08:09:48;;;;;;;13.95;9.15;;;;;;;5.24;76.79;100758.86;121075;1162;24740;-70
2021/04/16 08:12:24;;;;;;;16.30;8.67;;;;;;;5.29;76.75;100764.54;121039;1161;23358;-70
2021/04/16 08:15:27;;;;;;;12.40;8.75;;;;;;;5.33;76.78;100760.74;121090;1159;22720;-70
2021/04/16 08:17:55;;;;;;;10.87;7.40;;;;;;;5.36;76.98;100759.64;121646;1157;22564;-70
2021/04/16 08:20:34;;;;;;;17.25;10.05;;;;;;;5.40;76.83;100763.70;121531;1155;22565;-70
2021/04/16 08:23:15;;;;;;;19.37;9.67;;;;;;;5.38;76.31;100766.42;121669;1155;22533;-70
2021/04/16 08:25:53;;;;;;;14.33;8.88;;;;;;;5.39;76.36;100760.22;121566;1155;24818;-70
2021/04/16 08:28:58;;;;;;;14.48;7.78;;;;;;;5.38;76.31;100766.42;121707;1157;24522;-70
2021/04/16 08:32:12;;;;;;;13.93;7.93;;;;;;;5.38;76.39;100762.98;121981;1155;22545;-71
2021/04/16 08:34:48;;;;;;;16.08;9.45;;;;;;;5.38;76.45;100758.56;122320;1152;22529;-71
2021/04/16 08:37:26;;;;;;;15.83;8.75;;;;;;;5.45;76.57;100755.45;122338;1152;22527;-71
2021/04/16 08:39:54;;;;;;;14.18;9.28;;;;;;;5.44;76.19;100765.11;122489;1152;24690;-71
2021/04/16 08:42:32;;;;;;;12.85;8.33;;;;;;;5.45;76.36;100761.52;122171;1154;22616;-70
2021/04/16 08:45:26;;;;;;;15.80;8.63;;;;;;;5.44;76.10;100757.25;122331;1152;22612;-71
2021/04/16 08:48:10;;;;;;;17.10;9.28;;;;;;;5.46;76.47;100751.88;122365;1152;22540;-70
2021/04/16 08:50:48;;;;;;;15.90;8.43;;;;;;;5.50;76.41;100750.66;122071;1152;22543;-70
2021/04/16 08:53:16;;;;;;;14.95;9.20;;;;;;;5.52;76.29;100743.52;122064;1153;22431;-70
2021/04/16 08:55:51;;;;;;;13.95;7.55;;;;;;;5.53;76.27;100747.78;122293;1153;23067;-70
2021/04/16 08:58:35;;;;;;;14.85;7.83;;;;;;;5.54;76.24;100752.09;122306;1153;22536;-70
2021/04/16 09:01:07;;;;;;;13.35;9.53;;;;;;;5.52;76.18;100746.13;122284;1152;24499;-69
2021/04/16 09:03:54;;;;;;;15.45;8.70;;;;;;;5.51;75.95;100747.10;122073;1156;25275;-70
2021/04/16 09:06:32;;;;;;;15.45;8.33;;;;;;;5.47;76.12;100746.52;122085;1155;22611;-70
2021/04/16 09:09:04;;;;;;;12.83;7.08;;;;;;;5.49;76.24;100746.38;122054;1155;22554;-70
2021/04/16 09:11:42;;;;;;;10.88;7.05;;;;;;;5.50;76.32;100743.66;122007;1155;22543;-70
2021/04/16 09:14:24;;;;;;;11.25;6.70;;;;;;;5.52;76.27;100744.34;121984;1155;24713;-70
2021/04/16 09:17:09;;;;;;;10.15;6.63;;;;;;;5.52;76.09;100749.58;122075;1155;23447;-71
2021/04/16 09:19:43;;;;;;;10.50;7.13;;;;;;;5.52;76.14;100753.99;122062;1154;22548;-71
2021/04/16 09:22:12;;;;;;;11.50;6.68;;;;;;;5.52;76.18;100746.96;122107;1152;22537;-71
2021/04/16 09:24:55;;;;;;;15.13;7.73;;;;;;;5.57;76.16;100751.84;122392;1153;22666;-69
2021/04/16 09:27:32;;;;;;;12.68;7.10;;;;;;;5.59;76.08;100750.73;122330;1152;22643;-70
2021/04/16 09:30:06;;;;;;;15.90;7.43;;;;;;;5.59;75.80;100752.53;122380;1152;22528;-70
2021/04/16 09:32:35;;;;;;;11.00;7.05;;;;;;;5.59;75.75;100747.29;122369;1152;22542;-72
2021/04/16 09:35:18;;;;;;;14.75;7.55;;;;;;;5.60;75.81;100739.32;122436;1152;22558;-70
2021/04/16 09:37:52;;;;;;;10.13;7.10;;;;;;;5.61;75.76;100748.83;122350;1152;22536;-69
2021/04/16 09:40:23;;;;;;;12.15;7.03;;;;;;;5.64;75.64;100753.00;122486;1152;22528;-70
2021/04/16 09:42:55;;;;;;;11.75;6.98;;;;;;;5.67;75.48;100750.13;122450;1152;23300;-70
2021/04/16 09:45:30;;;;;;;12.00;7.05;;;;;;;5.64;75.36;100758.24;122382;1153;22542;-71
2021/04/16 09:48:08;;;;;;;12.88;7.80;;;;;;;5.66;75.29;100754.55;122338;1153;23301;-70
2021/04/16 09:50:47;;;;;;;14.60;8.18;;;;;;;5.66;75.09;100758.93;122212;1152;22544;-70
2021/04/16 09:53:34;;;;;;;12.93;8.08;;;;;;;5.67;75.13;100763.23;122312;1152;23647;-70
2021/04/16 09:56:16;;;;;;;14.20;7.87;;;;;;;5.70;75.13;100756.88;122075;1153;22530;-71
2021/04/16 09:58:50;;;;;;;15.68;9.40;;;;;;;5.70;75.18;100751.64;122488;1153;22527;-70
2021/04/16 10:01:20;;;;;;;13.43;7.98;;;;;;;5.73;75.15;100754.02;122415;1152;24676;-70
2021/04/16 10:04:08;;;;;;;14.50;7.90;;;;;;;5.76;75.14;100759.00;122202;1154;22532;-70
2021/04/16 10:06:44;;;;;;;12.98;7.00;;;;;;;5.79;75.00;100751.72;122354;1151;24416;-71
2021/04/16 10:09:18;;;;;;;14.20;7.98;;;;;;;5.80;74.80;100749.95;122004;1155;22829;-72
2021/04/16 10:12:14;;;;;;;12.40;7.53;;;;;;;5.84;74.95;100746.94;122035;1154;22540;-71
2021/04/16 10:14:43;;;;;;;11.95;8.33;;;;;;;5.86;74.73;100747.66;121923;1156;25220;-71
2021/04/16 10:17:14;;;;;;;14.75;8.85;;;;;;;5.90;74.81;100751.67;121996;1155;22534;-71
2021/04/16 10:19:45;;;;;;;20.07;11.37;;;;;;;5.96;74.67;100755.59;121992;1155;22592;-71
2021/04/16 10:22:33;;;;;;;10.40;6.73;;;;;;;5.95;74.45;100746.06;122132;1155;24390;-70
2021/04/16 11:45:21;;;;;;;9.00;6.05;;;;;;;5.59;75.38;100769.09;122254;1152;22527;-72
2021/04/16 12:39:47;;;;;;;9.18;5.65;;;;;;;5.59;75.24;100763.84;121711;1155;22557;-72
2021/04/16 12:42:15;;;;;;;10.37;6.10;;;;;;;5.59;75.13;100765.63;122017;1155;23357;-73
2021/04/16 12:44:51;;;;;;;7.68;5.78;;;;;;;5.61;75.36;100764.56;121659;1155;22571;-72
2021/04/16 12:47:31;;;;;;;10.00;6.60;;;;;;;5.60;75.36;100765.53;121986;1154;22527;-71
2021/04/16 12:50:01;;;;;;;7.30;6.43;;;;;;;5.63;75.55;100761.80;122388;1154;22623;-73
2021/04/16 12:52:29;;;;;;;8.80;6.70;;;;;;;5.66;75.87;100758.93;122222;1151;22540;-71
2021/04/16 12:54:58;;;;;;;10.00;6.45;;;;;;;5.70;75.61;100757.74;122149;1152;22943;-72
2021/04/16 12:57:40;;;;;;;12.93;8.63;;;;;;;5.70;75.47;100754.27;122206;1154;22530;-72
2021/04/16 13:00:14;;;;;;;10.90;8.78;;;;;;;5.73;75.80;100756.63;122478;1152;24744;-72
2021/04/16 13:02:43;;;;;;;10.08;7.38;;;;;;;5.75;75.63;100752.94;122083;1155;25156;-72
2021/04/16 13:05:15;;;;;;;12.05;6.93;;;;;;;5.76;75.50;100751.14;121772;1155;24686;-71
2021/04/16 13:07:43;;;;;;;11.10;9.35;;;;;;;5.74;75.35;100739.97;122038;1155;23034;-73
2021/04/16 13:10:18;;;;;;;11.45;8.93;;;;;;;5.71;75.27;100743.67;121967;1155;22628;-71
2021/04/16 13:12:46;;;;;;;12.53;8.78;;;;;;;5.69;75.14;100740.33;121467;1157;25647;-72
2021/04/16 13:15:17;;;;;;;10.98;7.90;;;;;;;5.67;75.46;100744.89;121490;1158;22559;-71
2021/04/16 13:17:53;;;;;;;10.13;7.63;;;;;;;5.67;75.24;100739.64;121445;1158;22555;-72
2021/04/16 13:20:25;;;;;;;10.98;6.43;;;;;;;5.68;75.38;100736.05;121520;1158;22618;-71
2021/04/16 13:22:55;;;;;;;10.07;6.60;;;;;;;5.68;75.59;100737.85;121498;1158;22549;-72
2021/04/16 13:25:28;;;;;;;10.78;7.48;;;;;;;5.71;75.69;100738.42;121529;1158;22624;-74
2021/04/16 13:27:57;;;;;;;10.55;6.73;;;;;;;5.71;75.35;100733.19;121459;1155;24791;-72
2021/04/16 13:30:29;;;;;;;9.85;6.58;;;;;;;5.71;75.43;100734.98;122031;1152;23320;-72
2021/04/16 13:33:03;;;;;;;9.53;6.00;;;;;;;5.73;75.67;100738.28;122204;1152;22533;-72
2021/04/16 13:35:39;;;;;;;9.90;5.85;;;;;;;5.71;75.29;100742.84;122201;1154;22541;-73
2021/04/16 13:38:18;;;;;;;10.98;6.73;;;;;;;5.68;75.35;100730.81;122214;1152;22534;-71
2021/04/16 13:40:46;;;;;;;15.95;6.23;;;;;;;5.65;75.13;100734.52;122368;1152;22626;-71
2021/04/16 13:43:14;;;;;;;12.13;6.88;;;;;;;5.61;75.01;100735.73;122170;1152;22997;-72
2021/04/16 13:45:42;;;;;;;8.45;6.68;;;;;;;5.59;75.18;100736.81;122362;1152;22579;-71
2021/04/16 13:48:13;;;;;;;8.65;6.43;;;;;;;5.56;75.13;100732.64;122360;1153;22527;-72
2021/04/16 13:50:43;;;;;;;9.93;6.65;;;;;;;5.55;75.28;100738.02;122147;1152;24773;-72
2021/04/16 13:53:13;;;;;;;13.45;7.43;;;;;;;5.52;75.11;100736.48;122245;1152;22534;-71
2021/04/16 13:55:42;;;;;;;15.65;9.60;;;;;;;5.54;75.36;100741.61;122160;1154;22531;-72